createdAt,value
2017-11-14T00:00:15.841Z,1.50
2017-11-14T00:02:42.558Z,1.53
2017-11-14T00:05:09.264Z,1.63
2017-11-14T00:07:35.966Z,1.63
2017-11-14T00:10:02.680Z,1.93
2017-11-14T00:12:29.401Z,1.90
2017-11-14T00:14:56.164Z,2.10
2017-11-14T00:17:22.892Z,2.30
2017-11-14T00:19:49.600Z,1.83
2017-11-14T00:22:16.310Z,1.80
2017-11-14T00:24:43.024Z,1.70
2017-11-14T00:27:09.730Z,1.70
2017-11-14T00:29:36.438Z,2.40
2017-11-14T00:32:03.142Z,1.60
2017-11-14T00:34:29.875Z,1.50
2017-11-14T00:36:56.576Z,1.90
2017-11-14T00:39:23.273Z,1.83
2017-11-14T00:41:50.004Z,1.27
2017-11-14T00:44:16.715Z,1.80
2017-11-14T00:46:43.433Z,2.20
2017-11-14T00:49:10.184Z,1.87
2017-11-14T00:51:36.892Z,1.70
2017-11-14T00:54:03.620Z,2.70
2017-11-14T00:56:30.351Z,1.80
2017-11-14T00:58:57.061Z,1.93
2017-11-14T01:01:23.768Z,2.10
2017-11-14T01:03:50.473Z,2.57
2017-11-14T01:06:17.189Z,1.80
2017-11-14T01:08:43.904Z,2.07
2017-11-14T01:11:10.617Z,1.77
2017-11-14T01:13:37.328Z,2.13
2017-11-14T01:16:04.036Z,1.53
2017-11-14T01:18:30.760Z,2.03
2017-11-14T01:20:57.466Z,2.33
2017-11-14T01:23:24.175Z,2.00
2017-11-14T01:25:50.885Z,2.50
2017-11-14T01:28:17.591Z,2.20
2017-11-14T01:30:44.291Z,1.90
2017-11-14T01:33:11.060Z,1.93
2017-11-14T01:35:37.770Z,1.60
2017-11-14T01:38:04.483Z,2.20
2017-11-14T01:40:31.263Z,1.80
2017-11-14T01:42:58.063Z,1.53
2017-11-14T01:45:24.773Z,2.20
2017-11-14T01:47:51.499Z,2.40
2017-11-14T01:50:18.215Z,2.33
2017-11-14T01:52:44.918Z,2.67
2017-11-14T01:55:11.619Z,2.60
2017-11-14T01:57:38.346Z,1.93
2017-11-14T02:00:05.051Z,2.10
2017-11-14T02:02:31.767Z,1.90
2017-11-14T02:04:58.480Z,2.60
2017-11-14T02:07:25.220Z,2.00
2017-11-14T02:09:51.974Z,3.17
2017-11-14T02:12:18.711Z,2.07
2017-11-14T02:14:45.452Z,2.00
2017-11-14T02:17:12.153Z,4.80
2017-11-14T02:19:38.906Z,2.50
2017-11-14T02:22:05.630Z,1.90
2017-11-14T02:24:32.361Z,2.37
2017-11-14T02:27:00.854Z,2.23
2017-11-14T02:29:27.587Z,2.30
2017-11-14T02:31:54.335Z,2.03
2017-11-14T02:34:21.088Z,2.20
2017-11-14T02:36:47.848Z,2.03
2017-11-14T02:39:14.626Z,2.50
2017-11-14T02:41:41.352Z,1.93
2017-11-14T02:44:08.088Z,1.67
2017-11-14T02:46:34.859Z,2.17
2017-11-14T02:49:01.611Z,2.63
2017-11-14T02:51:28.351Z,2.50
2017-11-14T02:53:55.104Z,2.83
2017-11-14T02:56:21.807Z,2.73
2017-11-14T02:58:48.536Z,3.17
2017-11-14T03:01:15.286Z,2.37
2017-11-14T03:03:41.997Z,2.50
2017-11-14T03:06:08.713Z,2.33
2017-11-14T03:08:35.423Z,2.13
2017-11-14T03:11:02.145Z,2.00
2017-11-14T03:13:28.893Z,2.53
2017-11-14T03:15:55.653Z,2.37
2017-11-14T03:18:22.356Z,2.80
2017-11-14T03:20:49.082Z,2.23
2017-11-14T03:23:15.796Z,2.70
2017-11-14T03:25:42.499Z,3.03
2017-11-14T03:28:09.211Z,2.53
2017-11-14T03:30:35.986Z,2.23
2017-11-14T03:33:02.711Z,3.07
2017-11-14T03:35:29.432Z,2.43
2017-11-14T03:37:56.148Z,2.20
2017-11-14T03:40:22.878Z,2.53
2017-11-14T03:42:49.591Z,4.00
2017-11-14T03:45:16.392Z,2.00
2017-11-14T03:47:43.103Z,2.37
2017-11-14T03:50:09.843Z,6.27
2017-11-14T03:52:36.606Z,2.27
2017-11-14T03:55:03.339Z,3.40
2017-11-14T03:57:30.053Z,2.80
2017-11-14T03:59:56.803Z,2.87
2017-11-14T04:02:23.543Z,2.53
2017-11-14T04:04:50.252Z,2.07
2017-11-14T04:07:16.968Z,2.60
2017-11-14T04:09:43.710Z,2.03
2017-11-14T04:12:10.428Z,3.10
2017-11-14T04:14:37.159Z,2.77
2017-11-14T04:17:03.880Z,5.20
2017-11-14T04:19:30.592Z,2.97
2017-11-14T04:21:57.297Z,2.40
2017-11-14T04:24:24.016Z,2.87
2017-11-14T04:26:50.739Z,2.40
2017-11-14T04:29:17.455Z,2.30
2017-11-14T04:31:44.158Z,2.80
2017-11-14T04:34:10.881Z,2.63
2017-11-14T04:36:37.591Z,2.40
2017-11-14T04:39:04.328Z,2.70
2017-11-14T04:41:31.034Z,2.70
2017-11-14T04:43:57.753Z,2.50
2017-11-14T04:46:24.464Z,2.67
2017-11-14T04:48:51.170Z,2.67
2017-11-14T04:51:17.886Z,3.37
2017-11-14T04:53:44.585Z,2.77
2017-11-14T04:56:11.311Z,2.80
2017-11-14T04:58:38.023Z,2.60
2017-11-14T05:01:04.729Z,2.20
2017-11-14T05:03:31.473Z,2.03
2017-11-14T05:05:58.199Z,1.67
2017-11-14T05:08:24.931Z,2.70
2017-11-14T05:10:51.647Z,2.63
2017-11-14T05:13:18.370Z,2.27
2017-11-14T05:15:45.081Z,2.67
2017-11-14T05:18:11.789Z,3.27
2017-11-14T05:20:38.496Z,2.40
2017-11-14T05:23:05.200Z,2.73
2017-11-14T05:25:31.903Z,2.57
2017-11-14T05:27:58.661Z,2.80
2017-11-14T05:30:25.377Z,3.27
2017-11-14T05:32:52.092Z,2.40
2017-11-14T05:35:18.813Z,4.37
2017-11-14T05:37:45.539Z,3.47
2017-11-14T05:40:12.247Z,2.80
2017-11-14T05:42:38.965Z,2.23
2017-11-14T05:45:05.871Z,2.70
2017-11-14T05:47:32.597Z,2.83
2017-11-14T05:49:59.385Z,2.60
2017-11-14T05:52:26.102Z,3.87
2017-11-14T05:54:52.819Z,3.53
2017-11-14T05:57:19.541Z,3.23
2017-11-14T05:59:46.241Z,2.77
2017-11-14T06:02:12.975Z,3.33
2017-11-14T06:04:39.684Z,3.50
2017-11-14T06:07:06.516Z,2.70
2017-11-14T06:09:33.242Z,2.80
2017-11-14T06:11:59.970Z,2.83
2017-11-14T06:14:26.698Z,3.07
2017-11-14T06:16:53.493Z,4.60
2017-11-14T06:19:20.231Z,4.80
2017-11-14T06:21:46.959Z,2.97
2017-11-14T06:24:13.694Z,2.90
2017-11-14T06:26:40.485Z,2.63
2017-11-14T06:29:07.193Z,3.13
2017-11-14T06:31:36.300Z,2.90
2017-11-14T06:34:03.098Z,3.03
2017-11-14T06:36:29.806Z,4.40
2017-11-14T06:38:56.522Z,3.70
2017-11-14T06:41:23.256Z,2.97
2017-11-14T06:43:50.048Z,3.27
2017-11-14T06:46:16.761Z,3.70
2017-11-14T06:48:43.483Z,3.30
2017-11-14T06:51:10.190Z,4.73
2017-11-14T06:53:36.903Z,3.83
2017-11-14T06:56:03.611Z,5.87
2017-11-14T06:58:30.311Z,8.10
2017-11-14T07:00:57.041Z,5.30
2017-11-14T07:03:23.747Z,9.87
2017-11-14T07:05:50.469Z,15.20
2017-11-14T07:08:17.200Z,9.40
2017-11-14T07:10:43.930Z,8.10
2017-11-14T07:13:10.675Z,7.07
2017-11-14T07:15:37.640Z,6.03
2017-11-14T07:18:04.354Z,5.00
2017-11-14T07:20:31.079Z,5.30
2017-11-14T07:22:57.778Z,6.10
2017-11-14T07:25:24.508Z,7.90
2017-11-14T07:27:51.217Z,7.20
2017-11-14T07:30:17.917Z,8.33
2017-11-14T07:32:44.642Z,13.07
2017-11-14T07:35:11.356Z,6.40
2017-11-14T07:37:38.056Z,5.47
2017-11-14T07:40:04.787Z,7.33
2017-11-14T07:42:31.522Z,6.27
2017-11-14T07:44:58.222Z,4.00
2017-11-14T07:47:24.937Z,5.80
2017-11-14T07:49:51.648Z,5.13
2017-11-14T07:52:18.363Z,3.87
2017-11-14T07:54:45.079Z,2.80
2017-11-14T07:57:11.798Z,2.27
2017-11-14T07:59:38.524Z,2.00
2017-11-14T08:02:05.242Z,2.60
2017-11-14T08:04:31.962Z,3.00
2017-11-14T08:06:58.686Z,3.23
2017-11-14T08:09:25.430Z,2.50
2017-11-14T08:11:52.139Z,2.90
2017-11-14T08:14:18.864Z,3.70
2017-11-14T08:16:45.567Z,5.70
2017-11-14T08:19:12.285Z,4.17
2017-11-14T08:21:39.007Z,2.83
2017-11-14T08:24:05.713Z,6.00
2017-11-14T08:26:32.418Z,2.20
2017-11-14T08:28:59.127Z,3.00
2017-11-14T08:31:25.834Z,2.00
2017-11-14T08:33:52.552Z,2.20
2017-11-14T08:36:19.279Z,1.80
2017-11-14T08:38:45.987Z,2.00
2017-11-14T08:41:12.693Z,3.07
2017-11-14T08:43:39.414Z,3.07
2017-11-14T08:46:06.143Z,2.23
2017-11-14T08:48:32.847Z,2.33
2017-11-14T08:50:59.553Z,3.53
2017-11-14T08:53:26.286Z,2.47
2017-11-14T08:55:52.991Z,1.80
2017-11-14T08:58:19.708Z,1.90
2017-11-14T09:00:46.427Z,2.30
2017-11-14T09:03:13.154Z,2.23
2017-11-14T09:05:39.892Z,2.97
2017-11-14T09:08:06.639Z,2.67
2017-11-14T09:10:33.386Z,3.70
2017-11-14T09:13:00.134Z,2.90
2017-11-14T09:15:26.904Z,2.77
2017-11-14T09:17:53.630Z,2.13
2017-11-14T09:20:20.354Z,1.70
2017-11-14T09:22:47.094Z,2.10
2017-11-14T09:25:13.848Z,4.20
2017-11-14T09:27:40.571Z,1.60
2017-11-14T09:30:07.334Z,2.17
2017-11-14T09:32:34.056Z,4.57
2017-11-14T09:35:00.788Z,4.17
2017-11-14T09:37:27.527Z,2.50
2017-11-14T09:39:54.263Z,2.90
2017-11-14T09:42:21.006Z,1.93
2017-11-14T09:44:47.750Z,2.30
2017-11-14T09:47:14.483Z,2.03
2017-11-14T09:49:41.235Z,1.87
2017-11-14T09:52:08.009Z,2.20
2017-11-14T09:54:34.772Z,1.90
2017-11-14T09:57:01.507Z,2.30
2017-11-14T09:59:28.248Z,2.63
2017-11-14T10:01:54.967Z,3.47
2017-11-14T10:04:21.732Z,2.30
2017-11-14T10:06:48.471Z,2.17
2017-11-14T10:09:15.200Z,2.70
2017-11-14T10:11:41.951Z,2.17
2017-11-14T10:14:08.685Z,2.40
2017-11-14T10:16:35.430Z,2.37
2017-11-14T10:19:02.144Z,2.03
2017-11-14T10:21:28.876Z,1.93
2017-11-14T10:23:55.603Z,2.20
2017-11-14T10:26:22.343Z,2.23
2017-11-14T10:28:49.080Z,1.90
2017-11-14T10:31:15.815Z,2.20
2017-11-14T10:33:42.550Z,1.97
2017-11-14T10:36:09.298Z,2.70
2017-11-14T10:38:36.048Z,3.33
2017-11-14T10:41:02.815Z,2.10
2017-11-14T10:43:29.579Z,2.87
2017-11-14T10:45:56.311Z,2.20
2017-11-14T10:48:23.066Z,2.50
2017-11-14T10:50:49.817Z,2.40
2017-11-14T10:53:16.544Z,2.33
2017-11-14T10:55:43.285Z,1.97
2017-11-14T10:58:10.007Z,2.00
2017-11-14T11:00:38.763Z,1.60
2017-11-14T11:03:05.500Z,2.43
2017-11-14T11:05:32.231Z,2.50
2017-11-14T11:07:58.967Z,1.83
2017-11-14T11:10:25.722Z,2.00
2017-11-14T11:12:52.460Z,1.80
2017-11-14T11:15:19.210Z,1.43
2017-11-14T11:17:45.942Z,1.80
2017-11-14T11:20:12.671Z,1.80
2017-11-14T11:22:39.410Z,3.17
2017-11-14T11:25:06.188Z,1.87
2017-11-14T11:27:32.933Z,4.53
2017-11-14T11:29:59.680Z,1.87
2017-11-14T11:32:26.417Z,1.93
2017-11-14T11:34:53.155Z,1.90
2017-11-14T11:37:19.888Z,2.90
2017-11-14T11:39:46.624Z,1.87
2017-11-14T11:42:13.353Z,1.70
2017-11-14T11:44:40.083Z,2.10
2017-11-14T11:47:06.822Z,1.93
2017-11-14T11:49:33.564Z,1.67
2017-11-14T11:52:00.273Z,2.70
2017-11-14T11:54:27.090Z,1.80
2017-11-14T11:56:53.854Z,3.23
2017-11-14T11:59:20.604Z,1.83
2017-11-14T12:01:47.354Z,1.73
2017-11-14T12:04:14.327Z,2.00
2017-11-14T12:06:41.063Z,1.77
2017-11-14T12:09:07.812Z,2.53
2017-11-14T12:11:34.544Z,2.53
2017-11-14T12:14:01.279Z,2.40
2017-11-14T12:16:27.990Z,2.20
2017-11-14T12:18:54.737Z,2.33
2017-11-14T12:21:21.503Z,1.70
2017-11-14T12:23:48.238Z,2.53
2017-11-14T12:26:15.003Z,1.70
2017-11-14T12:28:41.749Z,1.83
2017-11-14T12:31:08.511Z,4.20
2017-11-14T12:33:35.247Z,2.03
2017-11-14T12:36:02.003Z,25.00
2017-11-14T12:38:28.707Z,2.83
2017-11-14T12:40:55.421Z,1.90
2017-11-14T12:43:22.140Z,2.23
2017-11-14T12:45:48.851Z,2.20
2017-11-14T12:48:15.556Z,1.93
2017-11-14T12:50:42.293Z,2.20
2017-11-14T12:53:09.013Z,2.50
2017-11-14T12:55:35.719Z,1.70
2017-11-14T12:58:02.443Z,2.30
2017-11-14T13:00:29.157Z,2.00
2017-11-14T13:02:55.880Z,1.47
2017-11-14T13:05:22.621Z,1.60
2017-11-14T13:07:49.371Z,2.00
2017-11-14T13:10:16.099Z,3.23
2017-11-14T13:12:42.809Z,2.77
2017-11-14T13:15:09.540Z,2.00
2017-11-14T13:17:36.270Z,4.13
2017-11-14T13:20:02.994Z,4.40
2017-11-14T13:22:29.712Z,4.37
2017-11-14T13:24:56.456Z,7.30
2017-11-14T13:27:23.192Z,4.30
2017-11-14T13:29:49.900Z,6.70
2017-11-14T13:32:16.670Z,3.63
2017-11-14T13:34:43.390Z,5.63
2017-11-14T13:37:10.121Z,4.47
2017-11-14T13:39:36.879Z,4.17
2017-11-14T13:42:03.580Z,4.90
2017-11-14T13:44:30.305Z,3.40
2017-11-14T13:46:57.022Z,3.47
2017-11-14T13:49:23.739Z,5.03
2017-11-14T13:51:50.616Z,4.93
2017-11-14T13:54:17.383Z,9.63
2017-11-14T13:56:44.095Z,4.03
2017-11-14T13:59:10.808Z,5.17
2017-11-14T14:01:37.524Z,4.27
2017-11-14T14:04:04.222Z,3.80
2017-11-14T14:06:30.976Z,6.07
2017-11-14T14:08:57.692Z,6.13
2017-11-14T14:11:24.408Z,9.83
2017-11-14T14:13:51.197Z,5.20
2017-11-14T14:16:17.921Z,4.53
2017-11-14T14:18:44.633Z,2.90
2017-11-14T14:21:11.340Z,6.63
2017-11-14T14:23:38.050Z,3.70
2017-11-14T14:26:04.762Z,4.80
2017-11-14T14:28:35.474Z,4.23
2017-11-14T14:31:02.185Z,3.57
2017-11-14T14:33:28.909Z,4.33
2017-11-14T14:35:55.633Z,5.37
2017-11-14T14:38:22.363Z,4.47
2017-11-14T14:40:49.076Z,7.60
2017-11-14T14:43:15.778Z,5.97
2017-11-14T14:45:42.508Z,10.60
2017-11-14T14:48:09.223Z,4.93
2017-11-14T14:50:35.946Z,5.97
2017-11-14T14:53:02.671Z,8.80
2017-11-14T14:55:29.383Z,4.90
2017-11-14T14:57:56.092Z,8.33
2017-11-14T15:00:22.798Z,7.33
2017-11-14T15:02:49.500Z,5.47
2017-11-14T15:05:16.215Z,7.83
2017-11-14T15:07:42.933Z,6.77
2017-11-14T15:10:09.660Z,6.23
2017-11-14T15:12:36.364Z,5.70
2017-11-14T15:15:03.078Z,6.10
2017-11-14T15:17:29.784Z,5.67
2017-11-14T15:19:56.508Z,4.93
2017-11-14T15:22:23.224Z,3.87
2017-11-14T15:24:49.923Z,7.43
2017-11-14T15:27:16.675Z,4.23
2017-11-14T15:29:43.411Z,10.87
2017-11-14T15:32:10.147Z,5.80
2017-11-14T15:34:36.851Z,6.57
2017-11-14T15:37:03.570Z,6.00
2017-11-14T15:39:30.289Z,4.70
2017-11-14T15:41:57.038Z,4.70
2017-11-14T15:44:23.760Z,5.40
2017-11-14T15:46:50.499Z,6.00
2017-11-14T15:49:17.207Z,6.53
2017-11-14T15:51:43.910Z,5.70
2017-11-14T15:54:10.630Z,10.10
2017-11-14T15:56:37.343Z,5.90
2017-11-14T15:59:04.061Z,5.17
2017-11-14T16:01:30.767Z,5.83
2017-11-14T16:03:57.484Z,5.53
2017-11-14T16:06:24.219Z,5.07
2017-11-14T16:08:50.930Z,6.17
2017-11-14T16:11:17.653Z,4.77
2017-11-14T16:13:44.380Z,4.60
2017-11-14T16:16:11.098Z,4.33
2017-11-14T16:18:37.816Z,5.80
2017-11-14T16:21:04.536Z,5.50
2017-11-14T16:23:31.295Z,4.97
2017-11-14T16:25:58.001Z,6.40
2017-11-14T16:28:24.768Z,5.17
2017-11-14T16:30:51.516Z,6.40
2017-11-14T16:33:18.229Z,3.87
2017-11-14T16:35:44.987Z,5.80
2017-11-14T16:38:11.728Z,7.03
2017-11-14T16:40:38.457Z,5.27
2017-11-14T16:43:05.226Z,4.00
2017-11-14T16:45:31.952Z,9.00
2017-11-14T16:47:58.673Z,4.87
2017-11-14T16:50:25.393Z,5.10
2017-11-14T16:52:52.112Z,7.30
2017-11-14T16:55:18.836Z,6.53
2017-11-14T16:57:45.576Z,8.50
2017-11-14T17:00:12.343Z,9.23
2017-11-14T17:02:39.083Z,7.13
2017-11-14T17:05:05.817Z,5.47
2017-11-14T17:07:32.539Z,8.00
2017-11-14T17:09:59.287Z,6.13
2017-11-14T17:12:26.044Z,10.00
2017-11-14T17:14:52.768Z,6.60
2017-11-14T17:17:19.475Z,8.33
2017-11-14T17:19:46.196Z,10.17
2017-11-14T17:22:12.924Z,8.53
2017-11-14T17:24:39.737Z,8.00
2017-11-14T17:27:06.470Z,7.07
2017-11-14T17:29:33.194Z,9.60
2017-11-14T17:31:59.916Z,9.73
2017-11-14T17:34:26.639Z,13.20
2017-11-14T17:36:53.363Z,8.50
2017-11-14T17:39:20.084Z,8.57
2017-11-14T17:41:46.793Z,9.10
2017-11-14T17:44:13.548Z,8.87
2017-11-14T17:46:40.265Z,6.87
2017-11-14T17:49:07.884Z,6.78
2017-11-14T17:51:34.603Z,7.10
2017-11-14T17:54:01.311Z,7.80
2017-11-14T17:56:28.032Z,7.50
2017-11-14T17:58:54.743Z,9.50
2017-11-14T18:01:21.476Z,6.93
2017-11-14T18:03:48.316Z,7.57
2017-11-14T18:06:15.376Z,9.60
2017-11-14T18:08:42.100Z,6.27
2017-11-14T18:11:08.885Z,5.10
2017-11-14T18:13:35.803Z,7.30
2017-11-14T18:16:02.529Z,6.60
2017-11-14T18:18:29.244Z,5.80
2017-11-14T18:20:55.995Z,4.50
2017-11-14T18:23:22.742Z,7.03
2017-11-14T18:25:49.583Z,5.17
2017-11-14T18:28:16.320Z,14.67
2017-11-14T18:30:43.037Z,5.90
2017-11-14T18:33:09.765Z,5.33
2017-11-14T18:35:36.484Z,6.07
2017-11-14T18:38:03.223Z,10.53
2017-11-14T18:40:29.940Z,5.30
2017-11-14T18:42:56.663Z,9.00
2017-11-14T18:45:23.376Z,6.07
2017-11-14T18:47:50.126Z,6.37
2017-11-14T18:50:16.873Z,5.00
2017-11-14T18:52:43.609Z,4.23
2017-11-14T18:55:10.319Z,3.50
2017-11-14T18:57:37.035Z,8.40
2017-11-14T19:00:03.842Z,17.70
2017-11-14T19:02:30.588Z,5.60
2017-11-14T19:04:57.331Z,4.77
2017-11-14T19:07:24.043Z,8.93
2017-11-14T19:09:50.813Z,6.57
2017-11-14T19:12:17.564Z,6.20
2017-11-14T19:14:44.295Z,5.57
2017-11-14T19:17:11.041Z,4.40
2017-11-14T19:19:37.768Z,4.43
2017-11-14T19:22:04.519Z,6.27
2017-11-14T19:24:31.272Z,6.50
2017-11-14T19:26:58.004Z,8.20
2017-11-14T19:29:24.747Z,8.77
2017-11-14T19:31:51.479Z,8.10
2017-11-14T19:34:18.199Z,13.13
2017-11-14T19:36:44.910Z,5.20
2017-11-14T19:39:11.646Z,5.40
2017-11-14T19:41:38.394Z,7.47
2017-11-14T19:44:05.110Z,13.80
2017-11-14T19:46:31.868Z,12.37
2017-11-14T19:48:58.609Z,13.73
2017-11-14T19:51:26.258Z,16.80
2017-11-14T19:53:52.988Z,17.40
2017-11-14T19:56:19.766Z,17.23
2017-11-14T19:58:46.543Z,19.10
2017-11-14T20:01:13.884Z,13.87
2017-11-14T20:03:40.611Z,12.30
2017-11-14T20:06:07.382Z,18.17
2017-11-14T20:08:34.125Z,14.20
2017-11-14T20:11:00.889Z,22.00
2017-11-14T20:13:27.756Z,14.77
2017-11-14T20:15:54.504Z,24.27
2017-11-14T20:18:21.298Z,19.83
2017-11-14T20:20:48.053Z,22.00
2017-11-14T20:23:14.803Z,18.50
2017-11-14T20:25:41.560Z,21.80
2017-11-14T20:28:08.342Z,18.13
2017-11-14T20:30:35.924Z,19.67
2017-11-14T20:33:27.649Z,17.97
2017-11-14T20:35:57.572Z,16.57
2017-11-14T20:38:24.361Z,19.07
2017-11-14T20:40:51.100Z,15.27
2017-11-14T20:43:17.834Z,22.83
2017-11-14T20:45:44.589Z,18.87
2017-11-14T20:48:11.400Z,17.20
2017-11-14T20:50:38.213Z,12.90
2017-11-14T20:53:04.954Z,13.30
2017-11-14T20:55:31.700Z,11.00
2017-11-14T20:57:58.463Z,7.67
2017-11-14T21:00:25.230Z,12.20
2017-11-14T21:02:52.192Z,6.37
2017-11-14T21:05:18.987Z,9.23
2017-11-14T21:07:46.772Z,10.77
2017-11-14T21:10:13.548Z,7.30
2017-11-14T21:12:40.389Z,5.77
2017-11-14T21:15:07.161Z,11.17
2017-11-14T21:17:33.908Z,10.13
2017-11-14T21:20:04.352Z,10.27
2017-11-14T21:22:31.323Z,12.10
2017-11-14T21:24:58.048Z,9.53
2017-11-14T21:27:24.805Z,9.60
2017-11-14T21:29:51.538Z,9.57
2017-11-14T21:32:18.563Z,16.10
2017-11-14T21:34:45.383Z,14.20
2017-11-14T21:37:12.153Z,14.43
2017-11-14T21:39:38.889Z,10.30
2017-11-14T21:42:05.616Z,13.30
2017-11-14T21:44:32.340Z,14.23
2017-11-14T21:46:59.086Z,14.03
2017-11-14T21:49:25.834Z,15.47
2017-11-14T21:51:52.809Z,14.43
2017-11-14T21:54:20.224Z,17.62
2017-11-14T21:56:47.239Z,16.58
2017-11-14T21:59:14.736Z,16.95
2017-11-14T22:01:41.480Z,18.80
2017-11-14T22:04:08.215Z,23.05
2017-11-14T22:06:34.947Z,21.70
2017-11-14T22:09:01.672Z,18.20
2017-11-14T22:11:28.408Z,17.20
2017-11-14T22:13:55.148Z,21.17
2017-11-14T22:16:21.887Z,22.40
2017-11-14T22:18:48.675Z,18.43
2017-11-14T22:21:15.409Z,16.27
2017-11-14T22:23:42.163Z,18.35
2017-11-14T22:26:08.933Z,16.48
2017-11-14T22:28:37.638Z,22.13
2017-11-14T22:31:04.407Z,16.05
2017-11-14T22:33:31.704Z,20.73
2017-11-14T22:35:58.461Z,17.73
2017-11-14T22:38:25.212Z,21.87
2017-11-14T22:40:51.954Z,18.40
2017-11-14T22:43:18.694Z,19.15
2017-11-14T22:45:51.450Z,23.87
2017-11-14T22:48:18.195Z,16.70
2017-11-14T22:50:44.943Z,10.57
2017-11-14T22:53:11.688Z,11.55
2017-11-14T22:55:38.441Z,13.88
2017-11-14T22:58:05.192Z,16.48
2017-11-14T23:00:31.947Z,14.07
2017-11-14T23:02:58.691Z,17.83
2017-11-14T23:05:26.262Z,16.10
2017-11-14T23:07:53.031Z,16.30
2017-11-14T23:10:19.860Z,17.65
2017-11-14T23:12:46.578Z,15.55
2017-11-14T23:15:13.313Z,17.20
2017-11-14T23:17:40.062Z,16.05
2017-11-14T23:20:06.796Z,14.10
2017-11-14T23:22:33.528Z,13.55
2017-11-14T23:25:00.265Z,13.82
2017-11-14T23:27:27.002Z,14.18
2017-11-14T23:29:54.082Z,15.32
2017-11-14T23:32:21.433Z,12.55
2017-11-14T23:34:48.184Z,14.85
2017-11-14T23:37:14.933Z,10.52
2017-11-14T23:39:41.666Z,10.95
2017-11-14T23:42:08.460Z,9.05
2017-11-14T23:44:35.413Z,9.27
2017-11-14T23:47:02.225Z,8.20
2017-11-14T23:49:28.983Z,11.77
2017-11-14T23:51:55.721Z,9.82
2017-11-14T23:54:22.442Z,9.13
2017-11-14T23:56:49.158Z,9.25
2017-11-14T23:59:15.868Z,6.15
